Time;durP1;ratioP1;P1;durP2;ratioP2;P2;SDS_P1;SDS_P2;PMS_P1;PMS_P2;Temp;Humidity;BMP_temperature;BMP_pressure;BME280_temperature;BME280_humidity;BME280_pressure;Samples;Min_cycle;Max_cycle;Signal;HPM_P1;HPM_P2
2021/04/18 00:00:08;;;;;;;5.90;5.30;;;;;;;4.90;100.00;98525.66;5094780;28;20218;-72
2021/04/18 00:02:34;;;;;;;6.40;5.63;;;;;;;4.96;100.00;98525.41;5094602;28;20238;-72
2021/04/18 00:05:00;;;;;;;6.57;5.97;;;;;;;4.94;100.00;98528.09;5095111;28;20239;-71
2021/04/18 00:07:26;;;;;;;6.37;5.63;;;;;;;4.90;100.00;98520.44;5095002;28;20279;-72
2021/04/18 00:09:52;;;;;;;6.47;5.43;;;;;;;4.87;100.00;98521.41;5094712;28;20239;-72
2021/04/18 00:12:18;;;;;;;5.93;5.43;;;;;;;4.80;100.00;98517.34;5094633;28;20252;-72
2021/04/18 00:14:44;;;;;;;6.03;5.47;;;;;;;4.78;100.00;98513.06;5094960;28;20234;-73
2021/04/18 00:17:10;;;;;;;6.43;5.30;;;;;;;4.70;100.00;98513.38;5094792;28;20214;-72
2021/04/18 00:19:36;;;;;;;6.07;5.47;;;;;;;4.63;100.00;98516.28;5094297;28;20207;-69
2021/04/18 00:22:02;;;;;;;5.23;4.73;;;;;;;4.55;100.00;98514.00;5093014;28;20266;-70
2021/04/18 00:24:28;;;;;;;6.47;5.00;;;;;;;4.51;100.00;98512.41;5094734;28;20210;-68
2021/04/18 00:26:54;;;;;;;6.30;5.50;;;;;;;4.53;100.00;98512.34;5094474;28;20301;-71
2021/04/18 00:29:21;;;;;;;5.60;4.53;;;;;;;4.54;100.00;98501.81;5094469;28;20249;-69
2021/04/18 00:31:47;;;;;;;5.80;5.20;;;;;;;4.51;100.00;98507.16;5094643;28;20217;-69
2021/04/18 00:34:13;;;;;;;6.67;5.40;;;;;;;4.52;100.00;98502.78;5094552;28;20206;-69
2021/04/18 00:36:39;;;;;;;5.27;4.77;;;;;;;4.52;100.00;98495.78;5094658;28;20209;-69
2021/04/18 00:39:06;;;;;;;7.43;5.27;;;;;;;4.49;100.00;98498.53;5094593;28;20244;-68
2021/04/18 00:41:33;;;;;;;5.60;4.90;;;;;;;4.52;100.00;98495.78;5094947;28;20235;-69
2021/04/18 00:43:59;;;;;;;5.47;4.97;;;;;;;4.49;100.00;98493.28;5094563;28;20245;-69
2021/04/18 00:46:26;;;;;;;6.37;5.50;;;;;;;4.51;100.00;98496.69;5093845;28;20230;-69
2021/04/18 00:48:52;;;;;;;6.23;5.63;;;;;;;4.44;100.00;98492.63;5092433;28;20637;-70
2021/04/18 00:51:18;;;;;;;6.30;5.70;;;;;;;4.53;100.00;98500.09;5094187;28;20268;-73
2021/04/18 00:53:44;;;;;;;6.10;5.50;;;;;;;4.51;100.00;98496.69;5094005;28;20270;-67
2021/04/18 00:56:11;;;;;;;6.27;5.27;;;;;;;4.54;100.00;98493.97;5093980;28;20207;-70
2021/04/18 00:58:38;;;;;;;6.93;5.40;;;;;;;4.50;100.00;98495.00;5093775;28;20233;-72
2021/04/18 01:01:05;;;;;;;6.70;6.00;;;;;;;4.46;100.00;98487.31;5093737;28;20230;-69
2021/04/18 01:03:33;;;;;;;6.13;5.47;;;;;;;4.49;100.00;98498.53;5094060;28;20214;-70
2021/04/18 01:05:59;;;;;;;6.10;5.50;;;;;;;4.50;100.00;98489.75;5093895;28;20217;-69
2021/04/18 01:08:25;;;;;;;7.30;5.70;;;;;;;4.47;100.00;98483.78;5093920;28;20254;-70
2021/04/18 01:10:51;;;;;;;7.80;6.03;;;;;;;4.46;100.00;98488.16;5093750;28;20210;-70
2021/04/18 01:13:17;;;;;;;6.63;5.60;;;;;;;4.45;100.00;98485.63;5093593;28;20237;-69
2021/04/18 01:15:43;;;;;;;6.90;5.50;;;;;;;4.48;100.00;98481.13;5092028;28;20270;-70
2021/04/18 01:18:09;;;;;;;7.17;5.93;;;;;;;4.51;100.00;98475.75;5093442;28;20213;-70
2021/04/18 01:20:36;;;;;;;6.77;5.80;;;;;;;4.47;100.00;98479.41;5093516;28;20210;-68
2021/04/18 01:23:03;;;;;;;6.57;5.97;;;;;;;4.50;100.00;98481.91;5093402;28;20221;-69
2021/04/18 01:25:29;;;;;;;6.53;5.57;;;;;;;4.47;100.00;98479.41;5093721;28;20207;-70
2021/04/18 01:27:56;;;;;;;6.40;5.80;;;;;;;4.50;100.00;98473.19;5093678;28;20241;-70
2021/04/18 01:30:24;;;;;;;5.93;5.30;;;;;;;4.48;100.00;98465.41;5092571;28;20216;-70
2021/04/18 01:32:53;;;;;;;6.60;5.70;;;;;;;4.51;100.00;98478.38;5093060;28;20210;-68
2021/04/18 01:35:20;;;;;;;6.23;5.63;;;;;;;4.58;100.00;98466.75;5093418;28;20275;-70
2021/04/18 01:37:46;;;;;;;6.87;5.97;;;;;;;4.59;100.00;98465.81;5093179;28;20203;-68
2021/04/18 01:40:15;;;;;;;7.00;6.13;;;;;;;4.61;100.00;98471.00;5091733;28;20207;-69
2021/04/18 01:42:42;;;;;;;6.57;5.87;;;;;;;4.68;100.00;98468.09;5093377;28;20235;-71
2021/04/18 01:45:09;;;;;;;6.40;5.80;;;;;;;4.67;100.00;98471.63;5092985;28;20690;-71
2021/04/18 01:47:36;;;;;;;6.37;5.77;;;;;;;4.69;100.00;98463.69;5093009;28;20594;-70
2021/04/18 01:50:03;;;;;;;6.63;5.43;;;;;;;4.69;100.00;98469.78;5093240;28;20214;-70
2021/04/18 01:52:29;;;;;;;7.17;6.47;;;;;;;4.69;100.00;98458.44;5092879;28;20221;-70
2021/04/18 01:54:55;;;;;;;6.50;5.90;;;;;;;4.66;100.00;98456.84;5093172;28;20208;-70
2021/04/18 01:57:23;;;;;;;7.20;6.33;;;;;;;4.58;100.00;98466.75;5093162;28;20209;-71
2021/04/18 01:59:49;;;;;;;7.13;6.43;;;;;;;4.49;100.00;98461.88;5093036;28;20689;-71
2021/04/18 02:02:15;;;;;;;7.77;6.87;;;;;;;4.43;100.00;98461.25;5093086;28;20235;-68
2021/04/18 02:04:41;;;;;;;7.10;6.40;;;;;;;4.37;100.00;98462.38;5092894;28;20210;-71
2021/04/18 02:07:08;;;;;;;7.23;6.40;;;;;;;4.33;100.00;98458.16;5091305;28;20215;-70
2021/04/18 02:09:36;;;;;;;6.50;5.83;;;;;;;4.31;100.00;98457.38;5093594;28;20217;-70
2021/04/18 02:12:06;;;;;;;6.63;5.97;;;;;;;4.30;100.00;98460.03;5093995;28;20207;-71
2021/04/18 02:14:33;;;;;;;8.30;6.73;;;;;;;4.29;100.00;98453.94;5093611;28;20270;-71
2021/04/18 02:17:00;;;;;;;9.07;7.10;;;;;;;4.29;100.00;98460.97;5092758;28;20269;-71
2021/04/18 02:19:26;;;;;;;7.63;6.50;;;;;;;4.26;100.00;98464.56;5093068;28;20213;-70
2021/04/18 02:21:52;;;;;;;7.60;6.70;;;;;;;4.31;100.00;98456.50;5092668;28;20234;-69
2021/04/18 02:24:18;;;;;;;7.33;6.60;;;;;;;4.31;100.00;98454.75;5092629;28;20788;-70
2021/04/18 02:26:44;;;;;;;7.00;6.30;;;;;;;4.33;100.00;98465.19;5092959;28;20297;-70
2021/04/18 02:29:10;;;;;;;7.80;7.00;;;;;;;4.35;100.00;98458.09;5092608;28;20239;-69
2021/04/18 02:31:37;;;;;;;7.57;6.50;;;;;;;4.39;100.00;98464.94;5092495;28;20211;-69
2021/04/18 02:34:03;;;;;;;8.10;6.63;;;;;;;4.40;100.00;98459.63;5091020;28;20666;-71
2021/04/18 02:36:29;;;;;;;8.57;6.80;;;;;;;4.41;100.00;98461.31;5092454;28;20218;-70
2021/04/18 02:38:55;;;;;;;7.57;6.50;;;;;;;4.43;100.00;98462.13;5092773;28;20213;-69
2021/04/18 02:41:22;;;;;;;6.90;6.23;;;;;;;4.43;100.00;98456.91;5093715;28;20227;-70
2021/04/18 02:43:48;;;;;;;7.47;6.73;;;;;;;4.38;100.00;98458.84;5096581;28;20245;-68
2021/04/18 02:46:14;;;;;;;8.13;7.03;;;;;;;4.40;100.00;98457.00;5096116;28;20299;-70
2021/04/18 02:48:41;;;;;;;7.87;7.07;;;;;;;4.39;100.00;98455.31;5096448;28;20211;-70
2021/04/18 02:51:07;;;;;;;8.57;7.23;;;;;;;4.38;100.00;98457.97;5096346;28;20213;-71
2021/04/18 02:53:33;;;;;;;8.00;7.20;;;;;;;4.36;100.00;98463.28;5096079;28;20210;-71
2021/04/18 02:55:59;;;;;;;7.37;6.63;;;;;;;4.35;100.00;98458.94;5096308;28;20218;-71
2021/04/18 02:58:25;;;;;;;8.77;7.77;;;;;;;4.38;100.00;98456.22;5094909;28;20255;-71
2021/04/18 03:00:51;;;;;;;8.00;7.20;;;;;;;4.40;100.00;98457.00;5096308;28;20672;-67
2021/04/18 03:03:17;;;;;;;8.03;7.17;;;;;;;4.43;100.00;98454.28;5096294;28;20240;-67
2021/04/18 03:05:44;;;;;;;7.80;7.00;;;;;;;4.44;100.00;98453.34;5096250;28;20211;-67
2021/04/18 03:08:10;;;;;;;8.23;6.77;;;;;;;4.46;100.00;98455.94;5096169;28;20213;-67
2021/04/18 03:10:36;;;;;;;7.83;6.90;;;;;;;4.47;100.00;98450.59;5096068;28;20246;-67
2021/04/18 03:13:02;;;;;;;8.40;6.97;;;;;;;4.52;100.00;98460.91;5095789;28;20284;-67
2021/04/18 03:15:28;;;;;;;8.07;7.27;;;;;;;4.53;100.00;98452.97;5096243;28;20580;-67
2021/04/18 03:17:55;;;;;;;7.83;7.00;;;;;;;4.52;100.00;98446.03;5096432;28;20221;-67
2021/04/18 03:20:21;;;;;;;8.40;7.30;;;;;;;4.54;100.00;98452.09;5096341;28;20558;-68
2021/04/18 03:22:48;;;;;;;8.20;7.40;;;;;;;4.54;100.00;98444.25;5095784;28;20592;-68
2021/04/18 03:25:14;;;;;;;8.60;7.33;;;;;;;4.55;100.00;98453.78;5093808;28;20221;-69
2021/04/18 03:27:41;;;;;;;8.67;7.47;;;;;;;4.54;100.00;98451.22;5095675;28;20217;-69
2021/04/18 03:30:10;;;;;;;8.17;7.20;;;;;;;4.56;100.00;98458.09;5095429;28;20210;-67
2021/04/18 03:32:36;;;;;;;8.33;7.10;;;;;;;4.58;100.00;98451.03;5095623;28;20221;-69
2021/04/18 03:35:03;;;;;;;9.87;7.20;;;;;;;4.59;100.00;98447.50;5095621;28;20214;-72
2021/04/18 03:37:29;;;;;;;8.40;7.03;;;;;;;4.63;100.00;98454.31;5095423;28;20664;-71
2021/04/18 03:39:56;;;;;;;8.97;7.80;;;;;;;4.66;100.00;98438.50;5095603;28;20240;-69
2021/04/18 03:42:22;;;;;;;8.60;7.43;;;;;;;4.65;100.00;98452.47;5095492;28;20230;-70
2021/04/18 03:44:48;;;;;;;8.93;7.67;;;;;;;4.63;100.00;98446.47;5095098;28;20620;-70
2021/04/18 03:47:14;;;;;;;10.07;8.03;;;;;;;4.65;100.00;98447.25;5095360;28;20210;-70
2021/04/18 03:49:40;;;;;;;9.33;7.87;;;;;;;4.66;100.00;98458.59;5095353;28;20211;-71
2021/04/18 03:52:07;;;;;;;8.70;7.33;;;;;;;4.64;100.00;98449.94;5093585;28;20215;-72
2021/04/18 03:54:33;;;;;;;8.17;7.33;;;;;;;4.65;100.00;98452.47;5094076;28;20687;-72
2021/04/18 03:57:00;;;;;;;8.20;7.07;;;;;;;4.64;100.00;98455.19;5095286;28;20214;-70
2021/04/18 03:59:26;;;;;;;9.30;7.30;;;;;;;4.64;100.00;98449.94;5094893;28;20253;-71
2021/04/18 04:01:52;;;;;;;8.53;7.07;;;;;;;4.59;100.00;98452.72;5094978;28;20687;-71
2021/04/18 04:04:18;;;;;;;8.23;7.43;;;;;;;4.59;100.00;98451.91;5095066;28;20581;-70
2021/04/18 04:06:44;;;;;;;9.03;8.03;;;;;;;4.53;100.00;98442.50;5094656;28;20217;-70
2021/04/18 04:09:10;;;;;;;9.73;8.17;;;;;;;4.47;100.00;98442.75;5094907;28;20253;-69
2021/04/18 04:11:36;;;;;;;8.37;7.57;;;;;;;4.50;100.00;98449.63;5094843;28;20240;-70
2021/04/18 04:14:03;;;;;;;8.30;7.50;;;;;;;4.52;100.00;98445.22;5094574;28;20238;-69
2021/04/18 04:16:28;;;;;;;8.57;7.67;;;;;;;4.52;100.00;98453.06;5093039;28;20264;-70
2021/04/18 04:18:56;;;;;;;9.63;8.63;;;;;;;4.53;100.00;98452.97;5094776;28;20207;-68
2021/04/18 04:21:22;;;;;;;11.37;7.93;;;;;;;4.50;100.00;98442.66;5094400;28;20233;-67
2021/04/18 04:23:48;;;;;;;9.37;7.70;;;;;;;4.53;100.00;98452.97;5094431;28;20226;-68
2021/04/18 04:26:14;;;;;;;9.07;8.17;;;;;;;4.54;100.00;98453.84;5094408;28;20209;-68
2021/04/18 04:28:40;;;;;;;9.50;8.20;;;;;;;4.52;100.00;98451.28;5094242;28;20221;-67
2021/04/18 04:31:07;;;;;;;9.10;8.10;;;;;;;4.51;100.00;98454.81;5094513;28;20208;-69
2021/04/18 04:33:34;;;;;;;11.03;8.53;;;;;;;4.48;100.00;98459.31;5094090;28;20229;-69
2021/04/18 04:36:00;;;;;;;9.90;8.87;;;;;;;4.49;100.00;98456.66;5094396;28;20242;-69
2021/04/18 04:38:26;;;;;;;11.90;9.40;;;;;;;4.48;100.00;98454.09;5094298;28;20227;-69
2021/04/18 04:40:52;;;;;;;9.83;8.77;;;;;;;4.45;100.00;98464.69;5094192;28;20227;-70
2021/04/18 04:43:18;;;;;;;12.07;9.13;;;;;;;4.44;100.00;98469.06;5092412;28;20699;-68
2021/04/18 04:45:44;;;;;;;11.90;9.60;;;;;;;4.47;100.00;98468.09;5093979;28;20213;-68
2021/04/18 04:48:11;;;;;;;11.27;9.27;;;;;;;4.47;100.00;98463.69;5094252;28;20234;-68
2021/04/18 04:50:37;;;;;;;10.83;9.57;;;;;;;4.47;100.00;98473.31;5094148;28;20213;-67
2021/04/18 04:53:03;;;;;;;10.63;9.10;;;;;;;4.49;100.00;98467.13;5093910;28;20206;-68
2021/04/18 04:55:30;;;;;;;10.20;9.10;;;;;;;4.50;100.00;98468.81;5093820;28;20748;-68
2021/04/18 04:57:56;;;;;;;12.23;9.70;;;;;;;4.51;100.00;98465.28;5094038;28;20589;-67
2021/04/18 05:00:23;;;;;;;10.87;9.53;;;;;;;4.54;100.00;98459.94;5093650;28;20220;-67
2021/04/18 05:02:49;;;;;;;12.23;9.77;;;;;;;4.58;100.00;98471.13;5093884;28;20233;-67
2021/04/18 05:05:16;;;;;;;10.33;9.23;;;;;;;4.60;100.00;98470.16;5093691;28;20330;-67
2021/04/18 05:07:42;;;;;;;10.73;9.07;;;;;;;4.64;100.00;98470.91;5093666;28;20208;-67
2021/04/18 05:10:09;;;;;;;10.57;9.27;;;;;;;4.68;100.00;98468.09;5092206;28;20210;-68
2021/04/18 05:12:35;;;;;;;12.13;10.33;;;;;;;4.70;100.00;98471.47;5093437;28;20211;-68
2021/04/18 05:15:01;;;;;;;10.73;9.40;;;;;;;4.70;100.00;98476.72;5093677;28;20267;-68
2021/04/18 05:17:27;;;;;;;11.03;9.83;;;;;;;4.71;100.00;98473.19;5093670;28;20217;-68
2021/04/18 05:19:53;;;;;;;11.33;9.80;;;;;;;4.74;100.00;98477.44;5093326;28;20309;-68
2021/04/18 05:22:20;;;;;;;11.40;9.93;;;;;;;4.73;100.00;98481.84;5093563;28;20244;-71
2021/04/18 05:24:46;;;;;;;11.00;9.37;;;;;;;4.76;100.00;98481.72;5093691;28;20245;-71
2021/04/18 05:27:12;;;;;;;11.67;10.47;;;;;;;4.78;100.00;98479.91;5093723;28;20271;-70
2021/04/18 05:29:38;;;;;;;11.97;10.10;;;;;;;4.81;100.00;98489.38;5093566;28;20207;-70
2021/04/18 05:32:05;;;;;;;12.13;10.40;;;;;;;4.83;100.00;98492.78;5093129;28;20221;-70
2021/04/18 05:34:32;;;;;;;11.57;9.47;;;;;;;4.85;100.00;98483.97;5091575;28;20278;-68
2021/04/18 05:37:00;;;;;;;12.43;9.67;;;;;;;4.92;100.00;98488.03;5093527;28;20348;-67
2021/04/18 05:39:27;;;;;;;10.63;9.53;;;;;;;4.96;100.00;98494.00;5093303;28;20210;-69
2021/04/18 05:41:53;;;;;;;10.90;9.57;;;;;;;4.97;100.00;98487.84;5092882;28;20734;-69
2021/04/18 05:44:19;;;;;;;10.83;9.57;;;;;;;5.00;100.00;98504.28;5093310;28;20297;-69
2021/04/18 05:46:45;;;;;;;11.13;9.40;;;;;;;5.01;100.00;98490.25;5093047;28;20677;-70
2021/04/18 05:49:11;;;;;;;10.23;8.93;;;;;;;5.04;100.00;98489.28;5093105;28;20213;-69
2021/04/18 05:51:37;;;;;;;10.07;9.07;;;;;;;5.06;100.00;98485.69;5093279;28;20241;-69
2021/04/18 05:54:04;;;;;;;10.27;9.07;;;;;;;5.10;100.00;98484.66;5093250;28;20207;-68
2021/04/18 05:56:31;;;;;;;11.87;9.27;;;;;;;5.15;100.00;98490.56;5093322;28;20214;-72
2021/04/18 05:58:57;;;;;;;9.27;8.30;;;;;;;5.19;100.00;98489.50;5093213;28;20210;-72
2021/04/18 06:01:24;;;;;;;10.40;9.03;;;;;;;5.26;100.00;98480.44;5091270;28;20214;-72
2021/04/18 06:03:50;;;;;;;11.30;8.70;;;;;;;5.24;100.00;98484.91;5092743;28;20210;-67
2021/04/18 06:06:16;;;;;;;10.10;8.90;;;;;;;5.31;100.00;98486.34;5093081;28;20215;-66
2021/04/18 06:08:42;;;;;;;10.10;8.67;;;;;;;5.39;100.00;98484.28;5093081;28;20210;-69
2021/04/18 06:11:08;;;;;;;10.03;9.00;;;;;;;5.52;100.00;98482.81;5092792;28;20203;-68
2021/04/18 06:13:35;;;;;;;9.17;8.17;;;;;;;5.63;100.00;98483.19;5093236;28;20239;-68
2021/04/18 06:16:01;;;;;;;9.30;8.30;;;;;;;5.76;100.00;98484.38;5093515;28;20264;-68
2021/04/18 06:18:27;;;;;;;10.17;8.20;;;;;;;5.89;100.00;98490.78;5097135;28;20226;-69
2021/04/18 06:20:53;;;;;;;9.53;8.57;;;;;;;5.96;100.00;98488.72;5097188;28;20223;-69
2021/04/18 06:23:19;;;;;;;10.17;9.17;;;;;;;6.06;100.00;98487.41;5096941;28;20238;-68
2021/04/18 06:25:45;;;;;;;9.97;8.17;;;;;;;6.18;100.00;98478.97;5096920;28;20301;-68
2021/04/18 06:28:11;;;;;;;10.00;8.67;;;;;;;6.30;100.00;98486.28;5095004;28;20249;-70
2021/04/18 06:30:38;;;;;;;9.10;8.03;;;;;;;6.35;100.00;98490.38;5096731;28;20219;-70
2021/04/18 06:33:04;;;;;;;9.50;8.50;;;;;;;6.38;100.00;98485.00;5096792;28;20576;-68
2021/04/18 06:35:30;;;;;;;11.43;8.87;;;;;;;6.45;100.00;98491.66;5096771;28;20302;-70
2021/04/18 06:37:56;;;;;;;10.93;9.07;;;;;;;6.45;100.00;98491.66;5096831;28;20206;-69
2021/04/18 06:40:22;;;;;;;10.00;8.57;;;;;;;6.47;99.59;98489.81;5096595;28;20222;-70
2021/04/18 06:42:53;;;;;;;10.30;8.33;;;;;;;6.56;99.73;98488.50;5096677;28;20230;-68
2021/04/18 06:45:19;;;;;;;9.73;8.73;;;;;;;6.67;99.60;98492.34;5096237;28;20687;-69
2021/04/18 06:47:47;;;;;;;11.70;8.97;;;;;;;6.83;97.96;98493.28;5096506;28;20621;-70
2021/04/18 06:50:14;;;;;;;11.40;8.50;;;;;;;6.92;97.54;98500.75;5096417;28;20216;-69
2021/04/18 06:52:40;;;;;;;9.80;7.90;;;;;;;6.99;96.95;98496.88;5094591;28;20208;-69
2021/04/18 06:55:09;;;;;;;10.77;8.70;;;;;;;7.05;96.23;98487.84;5096376;28;20211;-69
2021/04/18 06:57:36;;;;;;;9.33;8.30;;;;;;;7.06;95.45;98495.66;5095992;28;20680;-69
2021/04/18 07:00:04;;;;;;;9.57;8.43;;;;;;;7.10;94.74;98496.34;5095917;28;20259;-69
2021/04/18 07:02:32;;;;;;;9.40;8.23;;;;;;;7.17;94.29;98495.97;5096179;28;20227;-69
2021/04/18 07:05:01;;;;;;;9.50;8.50;;;;;;;7.24;93.77;98489.47;5096159;28;20220;-69
2021/04/18 07:07:30;;;;;;;11.20;8.67;;;;;;;7.31;92.87;98496.13;5096095;28;20213;-68
2021/04/18 07:09:56;;;;;;;9.57;8.53;;;;;;;7.38;92.52;98497.50;5096098;28;20290;-69
2021/04/18 07:12:27;;;;;;;10.07;8.63;;;;;;;7.44;91.52;98497.19;5096189;28;20209;-68
2021/04/18 07:14:53;;;;;;;10.63;8.77;;;;;;;7.54;91.08;98494.03;5096148;28;20260;-69
2021/04/18 07:17:19;;;;;;;10.93;8.17;;;;;;;7.68;90.54;98485.41;5095776;28;20675;-69
2021/04/18 07:19:47;;;;;;;9.80;8.77;;;;;;;7.81;89.37;98492.59;5093936;28;20688;-69
2021/04/18 07:22:16;;;;;;;10.10;8.47;;;;;;;7.88;89.21;98487.84;5095896;28;20331;-68
2021/04/18 07:24:49;;;;;;;10.83;8.63;;;;;;;7.91;89.50;98483.28;5091817;28;20691;-69
2021/04/18 07:27:15;;;;;;;11.53;8.90;;;;;;;7.94;89.77;98487.53;5094046;28;20219;-69
2021/04/18 07:29:41;;;;;;;9.40;8.37;;;;;;;8.00;88.87;98487.19;5094412;28;20212;-69
2021/04/18 07:32:18;;;;;;;9.47;8.50;;;;;;;8.04;89.23;98478.22;5094097;28;20220;-69
2021/04/18 07:34:44;;;;;;;10.03;8.17;;;;;;;8.14;88.77;98474.16;5092666;28;20221;-69
2021/04/18 07:37:12;;;;;;;9.30;8.07;;;;;;;8.21;89.17;98475.56;5074533;28;20218;-69
2021/04/18 07:39:48;;;;;;;8.57;7.60;;;;;;;8.23;88.81;98481.59;5074209;28;20246;-69
2021/04/18 07:42:36;;;;;;;10.63;8.63;;;;;;;8.24;88.60;98478.00;5073729;28;20239;-69
2021/04/18 07:45:06;;;;;;;9.50;7.87;;;;;;;8.25;87.75;98477.09;5077265;28;20464;-69
2021/04/18 07:47:35;;;;;;;9.53;7.83;;;;;;;8.25;86.22;98477.09;5095518;28;20207;-69
2021/04/18 07:50:02;;;;;;;9.50;7.87;;;;;;;8.20;86.27;98487.03;5095356;28;20210;-69
2021/04/18 07:52:29;;;;;;;10.03;8.00;;;;;;;8.15;86.81;98486.41;5095304;28;20207;-69
2021/04/18 07:54:56;;;;;;;9.87;8.50;;;;;;;8.19;88.19;98487.91;5094931;28;20211;-69
2021/04/18 07:57:22;;;;;;;9.33;8.33;;;;;;;8.25;89.00;98483.22;5095163;28;20210;-70
2021/04/18 07:59:48;;;;;;;10.07;8.60;;;;;;;8.36;88.96;98486.13;5095116;28;20216;-70
2021/04/18 08:02:17;;;;;;;10.67;8.53;;;;;;;8.38;88.42;98478.13;5094701;28;20708;-69
2021/04/18 08:04:44;;;;;;;9.07;8.00;;;;;;;8.39;87.53;98485.94;5094710;28;20737;-69
2021/04/18 08:07:10;;;;;;;9.60;8.70;;;;;;;8.47;87.12;98482.88;5094603;28;20679;-69
2021/04/18 08:09:36;;;;;;;9.50;8.50;;;;;;;8.54;86.00;98476.34;5094428;28;20211;-69
2021/04/18 08:12:11;;;;;;;8.90;7.90;;;;;;;8.63;84.57;98481.09;5092657;28;20212;-69
2021/04/18 08:14:39;;;;;;;8.90;8.00;;;;;;;8.71;82.70;98481.53;5094823;28;20233;-69
2021/04/18 08:17:07;;;;;;;9.20;7.80;;;;;;;8.75;82.74;98478.63;5094703;28;20215;-69
2021/04/18 08:19:33;;;;;;;8.37;7.43;;;;;;;8.82;82.43;98484.41;5094723;28;20214;-70
2021/04/18 08:21:59;;;;;;;9.20;8.27;;;;;;;8.91;82.70;98473.31;5094622;28;20236;-68
2021/04/18 08:24:34;;;;;;;10.27;8.00;;;;;;;8.99;81.02;98479.03;5094583;28;20615;-69
2021/04/18 08:27:02;;;;;;;8.93;7.90;;;;;;;9.03;82.16;98480.53;5094449;28;20217;-69
2021/04/18 08:29:30;;;;;;;11.07;7.47;;;;;;;9.17;81.59;98475.34;5094591;28;20309;-69
2021/04/18 08:32:11;;;;;;;9.33;7.80;;;;;;;9.30;80.25;98487.69;5094382;28;20267;-68
2021/04/18 08:34:43;;;;;;;8.50;7.13;;;;;;;9.46;79.84;98492.91;5094602;28;20626;-68
2021/04/18 08:37:21;;;;;;;8.27;7.20;;;;;;;9.67;76.38;98491.66;5094660;28;20220;-71
2021/04/18 08:39:48;;;;;;;8.30;7.00;;;;;;;9.76;75.51;98485.81;5092402;28;20224;-69
2021/04/18 08:42:29;;;;;;;8.33;6.20;;;;;;;9.90;74.20;98499.06;5094407;28;20236;-69
2021/04/18 08:44:57;;;;;;;7.57;6.30;;;;;;;9.89;73.56;98494.69;5094062;28;20213;-68
2021/04/18 08:47:25;;;;;;;7.97;6.27;;;;;;;9.99;73.21;98493.19;5094426;28;20227;-68
2021/04/18 08:49:56;;;;;;;6.80;6.00;;;;;;;10.16;72.57;98490.41;5094215;28;20212;-69
2021/04/18 08:52:25;;;;;;;8.17;6.70;;;;;;;10.39;72.35;98497.75;5094282;28;20218;-70
2021/04/18 08:54:53;;;;;;;8.13;6.57;;;;;;;10.44;70.96;98493.88;5093827;28;20215;-69
2021/04/18 08:57:21;;;;;;;7.20;6.30;;;;;;;10.45;69.35;98482.34;5093766;28;20253;-68
2021/04/18 08:59:51;;;;;;;7.90;6.77;;;;;;;10.44;68.07;98487.72;5094171;28;20214;-68
2021/04/18 09:02:19;;;;;;;7.20;6.07;;;;;;;10.24;66.75;98488.13;5093885;28;20242;-69
2021/04/18 09:04:46;;;;;;;9.13;6.33;;;;;;;10.19;67.29;98490.19;5092001;28;20214;-69
2021/04/18 09:07:14;;;;;;;7.60;6.30;;;;;;;10.21;67.08;98490.97;5093882;28;20211;-69
2021/04/18 09:09:41;;;;;;;7.67;6.20;;;;;;;10.38;66.59;98491.59;5093838;28;20209;-69
2021/04/18 09:12:08;;;;;;;10.57;6.70;;;;;;;10.56;66.27;98494.88;5093881;28;20257;-70
2021/04/18 09:14:36;;;;;;;8.37;6.67;;;;;;;10.72;66.66;98491.19;5093471;28;20234;-70
2021/04/18 09:17:13;;;;;;;8.20;6.40;;;;;;;10.89;65.43;98498.03;5093772;28;20213;-70
2021/04/18 09:19:41;;;;;;;6.60;5.90;;;;;;;10.88;63.52;98497.16;5093741;28;20217;-69
2021/04/18 09:22:10;;;;;;;6.77;5.50;;;;;;;10.64;64.14;98492.63;5093574;28;20237;-69
2021/04/18 09:24:40;;;;;;;7.03;6.10;;;;;;;10.64;64.39;98493.44;5093186;28;20207;-69
2021/04/18 09:27:10;;;;;;;8.20;6.07;;;;;;;10.81;64.36;98495.00;5093310;28;20221;-69
2021/04/18 09:29:41;;;;;;;7.27;6.13;;;;;;;10.74;64.54;98488.41;5093493;28;20214;-69
2021/04/18 09:32:10;;;;;;;8.90;5.90;;;;;;;10.83;65.64;98493.13;5091563;28;20240;-69
2021/04/18 09:34:38;;;;;;;7.53;6.20;;;;;;;10.96;67.01;98499.31;5093675;28;20213;-69
2021/04/18 09:37:08;;;;;;;9.93;5.80;;;;;;;11.21;66.26;98494.13;5093038;28;20212;-69
2021/04/18 09:39:35;;;;;;;7.90;5.87;;;;;;;11.26;64.65;98492.84;5093394;28;20213;-69
2021/04/18 09:42:03;;;;;;;6.80;5.93;;;;;;;11.27;64.55;98493.72;5093169;28;20249;-70
2021/04/18 09:44:33;;;;;;;8.67;6.30;;;;;;;11.35;66.39;98488.75;5093322;28;20618;-69
2021/04/18 09:47:04;;;;;;;7.87;6.17;;;;;;;11.41;67.59;98491.84;5092973;28;20679;-69
2021/04/18 09:49:47;;;;;;;9.17;6.80;;;;;;;11.45;65.85;98490.72;5093381;28;20204;-69
2021/04/18 09:52:27;;;;;;;8.23;6.10;;;;;;;11.40;64.92;98489.31;5092631;28;20283;-69
2021/04/18 09:54:53;;;;;;;8.00;6.60;;;;;;;11.42;64.79;98487.38;5093508;28;20221;-70
2021/04/18 09:57:23;;;;;;;8.27;6.97;;;;;;;11.60;66.67;98494.13;5091621;28;20217;-69
2021/04/18 10:00:07;;;;;;;9.73;7.00;;;;;;;11.67;64.12;98487.50;5092855;28;20211;-69
2021/04/18 10:02:33;;;;;;;9.37;6.23;;;;;;;11.81;64.17;98487.38;5092858;28;20723;-70
2021/04/18 10:05:08;;;;;;;9.23;6.63;;;;;;;11.68;61.29;98489.19;5093086;28;20257;-70
2021/04/18 10:07:35;;;;;;;8.83;6.30;;;;;;;11.61;60.59;98487.91;5092940;28;20219;-70
2021/04/18 10:10:01;;;;;;;8.23;6.73;;;;;;;11.64;61.69;98487.69;5092995;28;20222;-70
2021/04/18 10:12:27;;;;;;;8.27;6.63;;;;;;;11.86;63.67;98493.22;5092964;28;20640;-69
2021/04/18 10:15:05;;;;;;;7.13;6.43;;;;;;;11.91;60.23;98493.72;5092941;28;20215;-69
2021/04/18 10:17:35;;;;;;;8.10;6.40;;;;;;;12.04;60.16;98476.91;5093010;28;20222;-70
2021/04/18 10:20:02;;;;;;;9.57;6.63;;;;;;;12.24;60.85;98481.63;5092816;28;20669;-70
2021/04/18 10:22:28;;;;;;;9.53;6.23;;;;;;;12.37;61.52;98476.34;5093001;28;20235;-70
2021/04/18 10:24:56;;;;;;;7.53;6.40;;;;;;;12.20;56.88;98479.31;5091300;28;20204;-70
2021/04/18 10:27:25;;;;;;;9.63;6.63;;;;;;;11.93;57.26;98483.91;5092993;28;20246;-70
2021/04/18 10:29:52;;;;;;;7.27;6.30;;;;;;;11.84;58.17;98481.88;5093623;28;20263;-70
2021/04/18 10:32:19;;;;;;;7.33;6.00;;;;;;;12.11;58.44;98477.31;5095863;28;20228;-69
2021/04/18 10:34:47;;;;;;;7.33;6.00;;;;;;;12.50;59.13;98470.06;5095141;28;20699;-68
2021/04/18 10:37:13;;;;;;;8.40;6.50;;;;;;;12.73;58.48;98471.06;5093024;28;20245;-69
2021/04/18 10:39:39;;;;;;;8.93;6.87;;;;;;;12.83;58.61;98478.22;5092949;28;20254;-70
2021/04/18 10:42:07;;;;;;;7.17;6.47;;;;;;;12.93;60.15;98473.09;5089180;28;20245;-69
2021/04/18 10:44:33;;;;;;;7.30;6.03;;;;;;;12.98;57.31;98465.69;5091794;28;20619;-70
2021/04/18 10:47:01;;;;;;;9.20;5.97;;;;;;;12.83;54.84;98477.41;5091379;28;20233;-70
2021/04/18 10:49:27;;;;;;;6.80;6.10;;;;;;;12.75;54.72;98471.78;5091463;28;20213;-70
2021/04/18 10:51:54;;;;;;;7.60;6.07;;;;;;;12.55;55.11;98472.38;5092318;28;20222;-70
2021/04/18 10:54:20;;;;;;;7.90;6.40;;;;;;;12.75;56.48;98469.13;5092752;28;20578;-70
2021/04/18 10:56:46;;;;;;;7.80;6.63;;;;;;;13.04;59.54;98462.56;5092489;28;20206;-70
2021/04/18 10:59:13;;;;;;;9.30;6.77;;;;;;;13.06;60.84;98464.16;5092468;28;20224;-69
2021/04/18 11:01:39;;;;;;;8.13;6.40;;;;;;;13.13;62.20;98453.91;5092371;28;20210;-69
2021/04/18 11:04:06;;;;;;;7.73;6.80;;;;;;;13.16;60.70;98459.88;5096142;28;20214;-69
2021/04/18 11:06:32;;;;;;;7.73;6.93;;;;;;;13.23;61.34;98453.16;5096163;28;20263;-69
2021/04/18 11:08:58;;;;;;;8.03;6.13;;;;;;;13.12;58.72;98457.53;5096203;28;20212;-70
2021/04/18 11:11:24;;;;;;;7.10;6.40;;;;;;;12.80;58.76;98456.38;5096205;28;20211;-69
2021/04/18 11:13:51;;;;;;;7.37;6.53;;;;;;;12.57;60.37;98457.19;5095721;28;20236;-69
2021/04/18 11:16:18;;;;;;;8.07;6.80;;;;;;;12.28;61.63;98453.97;5093951;28;20211;-69
2021/04/18 11:18:45;;;;;;;8.43;6.97;;;;;;;12.06;62.83;98452.94;5096021;28;20217;-69
2021/04/18 11:21:11;;;;;;;7.20;5.97;;;;;;;11.83;62.08;98456.34;5095821;28;20221;-70
2021/04/18 11:23:37;;;;;;;8.57;6.70;;;;;;;11.70;61.66;98463.44;5095803;28;20276;-70
2021/04/18 11:26:03;;;;;;;8.33;6.40;;;;;;;11.57;60.59;98462.56;5095826;28;20206;-69
2021/04/18 11:28:29;;;;;;;8.00;6.17;;;;;;;11.54;61.95;98465.38;5095401;28;20211;-69
2021/04/18 11:30:55;;;;;;;8.13;6.53;;;;;;;11.64;62.54;98461.22;5095234;28;20217;-69
2021/04/18 11:33:23;;;;;;;7.57;6.37;;;;;;;11.75;62.06;98469.28;5095621;28;20212;-69